CST,Max TemperatureF,Mean TemperatureF,Min TemperatureF,Max Dew PointF,MeanDew PointF,Min DewpointF,Max Humidity, Mean Humidity, Min Humidity, Max Sea Level PressureIn, Mean Sea Level PressureIn, Min Sea Level PressureIn, Max VisibilityMiles, Mean VisibilityMiles, Min VisibilityMiles, Max Wind SpeedMPH, Mean Wind SpeedMPH, Max Gust SpeedMPH,PrecipitationIn, CloudCover, Events, WindDirDegrees
2013-11-1,50,42,33,37,36,30,100,81,58,29.85,29.61,29.41,10,9,5,14,9,18,0.00,5,,294
2013-11-2,46,36,26,36,30,25,100,78,50,30.09,30.01,29.86,10,10,7,16,6,22,0.00,1,,298
2013-11-3,53,40,26,34,31,25,100,70,41,30.11,30.00,29.89,10,10,7,24,7,37,0.00,0,,148
2013-11-4,46,37,28,45,36,28,100,82,62,30.15,29.93,29.84,10,9,5,16,11,26,0.09,4,Rain,192
2013-11-5,42,32,23,34,29,23,100,89,61,30.23,30.13,29.99,10,7,2,15,3,23,0.16,4,Rain-Snow,14
2013-11-6,35,32,28,30,27,25,100,85,65,30.16,30.08,29.99,10,9,2,15,10,20,0.00,4,Snow,288
2013-11-7,32,28,23,28,26,21,100,92,80,30.23,30.20,30.16,10,8,2,16,6,21,0.00,5,,262
2013-11-8,44,32,19,39,28,19,100,80,53,30.19,29.91,29.61,10,9,5,20,5,26,0.00,3,Rain,154
2013-11-9,44,38,32,39,32,25,87,75,60,30.20,29.91,29.63,10,10,10,29,16,40,0.00,7,,281
2013-11-10,41,36,30,30,28,25,86,72,61,30.32,30.23,30.09,10,10,10,16,8,22,0.00,6,,260
2013-11-11,35,24,12,30,15,7,93,70,50,30.71,30.42,30.10,10,10,2,18,11,26,0.00,2,Rain-Snow,337
2013-11-12,26,17,8,12,9,7,92,73,46,30.76,30.66,30.44,10,10,10,12,5,,0.00,0,,267
2013-11-13,48,34,21,34,23,12,80,63,49,30.43,30.08,29.88,10,10,10,17,6,24,0.00,0,,210
2013-11-14,48,40,32,36,31,27,87,78,62,29.87,29.82,29.76,10,10,7,8,3,,0.00,1,,229
2013-11-15,53,38,24,39,34,25,100,80,54,29.84,29.77,29.64,10,9,5,10,4,,0.00,0,,175
2013-11-16,48,42,37,48,41,34,100,94,81,29.65,29.41,29.23,10,6,0,13,6,20,0.13,4,Fog-Rain-Thunderstorm,150
2013-11-17,42,36,30,39,34,25,100,87,75,29.81,29.48,29.31,10,9,3,31,10,41,0.00,6,,278
2013-11-18,33,25,17,25,20,16,100,75,56,30.25,30.08,29.83,10,10,10,30,16,38,0.00,3,,292
2013-11-19,44,30,15,30,24,14,100,76,53,30.25,30.08,29.91,10,10,7,23,7,33,0.00,2,,145
2013-11-20,42,38,35,34,30,25,93,72,53,30.03,29.93,29.89,10,8,2,17,13,28,0.00,8,,156
2013-11-21,35,28,21,36,27,16,100,92,74,30.48,30.25,30.03,10,4,0,17,6,23,0.00,8,Fog-Snow,325
2013-11-22,28,18,8,16,11,3,92,70,43,30.59,30.51,30.44,10,10,7,23,9,30,0.00,1,Snow,287
2013-11-23,15,8,1,3,1,-2,92,72,49,30.82,30.73,30.60,10,10,10,15,11,24,0.00,1,,299
2013-11-24,28,14,1,16,7,0,92,69,51,30.69,30.34,30.00,10,10,10,22,8,30,0.00,1,,195
2013-11-25,37,32,26,27,22,16,80,68,56,30.06,29.98,29.91,10,10,10,24,11,28,0.00,6,,264
2013-11-26,28,20,8,19,7,0,79,58,46,30.35,30.21,30.06,10,10,10,28,16,36,0.00,4,,318
2013-11-27,23,13,3,10,6,1,92,70,50,30.36,30.23,30.06,10,10,7,10,5,,0.00,3,,162
2013-11-28,26,17,6,12,11,5,92,71,55,30.49,30.28,30.05,10,10,7,16,6,22,0.00,4,,301
2013-11-29,32,18,5,21,14,1,92,75,51,30.50,30.36,30.13,10,10,7,16,4,22,0.00,1,,162
2013-11-30,35,27,19,27,23,18,100,77,65,30.15,30.06,30.02,10,10,5,10,5,,0.00,1,,266